createdAt,value
2018-03-31T00:01:13.407Z,74.49
2018-03-31T00:03:47.338Z,74.72
2018-03-31T00:06:22.701Z,74.43
2018-03-31T00:08:57.179Z,74.15
2018-03-31T00:11:31.271Z,73.92
2018-03-31T00:14:04.726Z,74.39
2018-03-31T00:16:39.013Z,74.33
2018-03-31T00:19:13.374Z,74.45
2018-03-31T00:21:47.650Z,75.17
2018-03-31T00:24:22.686Z,75.26
2018-03-31T00:26:57.215Z,74.46
2018-03-31T00:29:31.546Z,74.44
2018-03-31T00:32:05.660Z,74.50
2018-03-31T00:34:39.571Z,74.60
2018-03-31T00:37:13.518Z,74.71
2018-03-31T00:39:47.499Z,74.96
2018-03-31T00:42:22.850Z,74.91
2018-03-31T00:44:56.489Z,75.51
2018-03-31T00:47:30.635Z,75.91
2018-03-31T00:50:04.369Z,77.09
2018-03-31T00:52:38.637Z,78.18
2018-03-31T00:55:11.918Z,78.54
2018-03-31T00:57:46.530Z,79.28
2018-03-31T01:00:20.503Z,79.98
2018-03-31T01:02:54.389Z,81.40
2018-03-31T01:08:29.454Z,82.80
2018-03-31T01:11:03.038Z,83.58
2018-03-31T01:13:37.092Z,83.75
2018-03-31T01:16:10.607Z,83.60
2018-03-31T01:18:44.573Z,83.41
2018-03-31T01:21:18.534Z,83.48
2018-03-31T01:23:52.538Z,83.67
2018-03-31T01:26:25.938Z,83.81
2018-03-31T01:29:00.430Z,84.16
2018-03-31T01:31:33.941Z,84.33
2018-03-31T01:34:08.052Z,84.19
2018-03-31T01:36:42.021Z,83.87
2018-03-31T01:39:16.498Z,83.97
2018-03-31T01:41:50.550Z,84.31
2018-03-31T01:44:24.641Z,84.64
2018-03-31T01:46:58.214Z,84.77
2018-03-31T01:49:32.862Z,84.90
2018-03-31T01:52:06.642Z,84.87
2018-03-31T01:54:40.906Z,84.94
2018-03-31T01:57:14.673Z,85.31
2018-03-31T01:59:48.840Z,86.15
2018-03-31T02:02:22.978Z,86.19
2018-03-31T02:04:56.775Z,86.32
2018-03-31T02:07:30.902Z,86.96
2018-03-31T02:10:05.111Z,87.16
2018-03-31T02:12:39.147Z,87.39
2018-03-31T02:15:13.235Z,87.18
2018-03-31T02:17:47.574Z,87.47
2018-03-31T02:20:21.186Z,87.49
2018-03-31T02:22:55.730Z,87.39
2018-03-31T02:25:28.834Z,87.32
2018-03-31T02:28:02.890Z,87.49
2018-03-31T02:30:36.602Z,87.38
2018-03-31T02:33:10.277Z,87.04
2018-03-31T02:35:44.026Z,87.28
2018-03-31T02:38:18.030Z,87.40
2018-03-31T02:40:52.715Z,86.91
2018-03-31T02:43:27.131Z,86.84
2018-03-31T02:46:01.361Z,86.51
2018-03-31T02:48:35.603Z,86.51
2018-03-31T02:51:09.904Z,86.08
2018-03-31T02:53:44.015Z,86.40
2018-03-31T02:56:18.323Z,86.42
2018-03-31T02:58:52.674Z,86.34
2018-03-31T03:01:27.177Z,86.01
2018-03-31T03:04:00.930Z,86.10
2018-03-31T03:06:34.902Z,85.91
2018-03-31T03:09:08.879Z,85.65
2018-03-31T03:11:42.871Z,85.45
2018-03-31T03:14:17.122Z,85.46
2018-03-31T03:16:51.214Z,85.60
2018-03-31T03:19:25.112Z,85.60
2018-03-31T03:21:58.742Z,85.51
2018-03-31T03:24:32.978Z,85.45
2018-03-31T03:27:06.936Z,85.10
2018-03-31T03:29:40.319Z,85.40
2018-03-31T03:32:14.106Z,85.73
2018-03-31T03:34:48.017Z,85.88
2018-03-31T03:37:23.227Z,86.24
2018-03-31T03:39:56.996Z,86.31
2018-03-31T03:42:30.694Z,86.24
2018-03-31T03:45:04.979Z,86.22
2018-03-31T03:47:39.218Z,86.04
2018-03-31T03:50:13.110Z,86.09
2018-03-31T03:52:47.086Z,86.32
2018-03-31T03:55:21.447Z,86.62
2018-03-31T03:57:55.229Z,86.32
2018-03-31T04:00:29.039Z,86.38
2018-03-31T04:03:03.039Z,86.30
2018-03-31T04:05:42.230Z,86.31
2018-03-31T04:08:15.851Z,86.64
2018-03-31T04:10:50.028Z,86.50
2018-03-31T04:13:23.391Z,86.33
2018-03-31T04:15:57.170Z,86.07
2018-03-31T04:18:30.555Z,85.96
2018-03-31T04:21:04.941Z,85.87
2018-03-31T04:23:38.957Z,85.75
2018-03-31T04:26:13.319Z,85.87
2018-03-31T04:28:47.034Z,85.75
2018-03-31T04:31:21.258Z,85.57
2018-03-31T04:33:55.282Z,85.31
2018-03-31T04:36:29.437Z,85.60
2018-03-31T04:39:03.447Z,85.85
2018-03-31T04:41:37.503Z,86.18
2018-03-31T04:44:11.126Z,86.16
2018-03-31T04:46:44.853Z,86.05
2018-03-31T04:49:18.152Z,86.23
2018-03-31T04:51:52.046Z,86.22
2018-03-31T04:54:26.314Z,86.15
2018-03-31T04:57:00.083Z,85.86
2018-03-31T04:59:33.650Z,85.54
2018-03-31T05:02:07.373Z,85.21
2018-03-31T05:04:40.690Z,85.04
2018-03-31T05:07:14.324Z,84.90
2018-03-31T05:09:48.447Z,84.85
2018-03-31T05:12:23.424Z,85.17
2018-03-31T05:14:58.150Z,85.42
2018-03-31T05:17:32.771Z,85.55
2018-03-31T05:20:06.694Z,85.46
2018-03-31T05:22:40.914Z,85.62
2018-03-31T05:25:14.915Z,85.95
2018-03-31T05:27:49.067Z,86.16
2018-03-31T05:30:23.781Z,86.03
2018-03-31T05:32:58.375Z,85.81
2018-03-31T05:35:32.643Z,85.83
2018-03-31T05:38:06.413Z,85.79
2018-03-31T05:40:40.471Z,86.10
2018-03-31T05:43:13.985Z,86.31
2018-03-31T05:45:50.425Z,86.33
2018-03-31T05:48:24.494Z,86.29
2018-03-31T05:50:58.611Z,86.36
2018-03-31T05:53:32.847Z,86.34
2018-03-31T05:56:06.434Z,86.26
2018-03-31T05:58:40.710Z,86.48
2018-03-31T06:01:14.775Z,86.78
2018-03-31T06:03:48.542Z,86.90
2018-03-31T06:06:23.961Z,87.06
2018-03-31T06:08:57.841Z,86.97
2018-03-31T06:11:31.998Z,87.04
2018-03-31T06:14:06.407Z,86.78
2018-03-31T06:16:40.018Z,86.43
2018-03-31T06:19:13.625Z,86.35
2018-03-31T06:21:47.131Z,86.71
2018-03-31T06:24:20.758Z,86.86
2018-03-31T06:26:54.618Z,86.82
2018-03-31T06:29:28.323Z,86.73
2018-03-31T06:32:02.467Z,86.34
2018-03-31T06:34:36.759Z,86.32
2018-03-31T06:37:10.133Z,86.45
2018-03-31T06:39:44.130Z,86.56
2018-03-31T06:42:18.498Z,86.45
2018-03-31T06:44:52.616Z,86.42
2018-03-31T06:47:26.573Z,86.16
2018-03-31T06:50:00.650Z,86.17
2018-03-31T06:52:34.678Z,86.17
2018-03-31T06:55:08.646Z,85.99
2018-03-31T06:57:42.689Z,86.13
2018-03-31T07:00:16.714Z,86.41
2018-03-31T07:02:50.711Z,86.54
2018-03-31T07:05:24.955Z,86.80
2018-03-31T07:07:58.971Z,87.29
2018-03-31T07:10:33.123Z,87.57
2018-03-31T07:13:06.774Z,87.51
2018-03-31T07:15:40.762Z,87.36
2018-03-31T07:18:14.830Z,87.02
2018-03-31T07:20:48.722Z,86.81
2018-03-31T07:23:24.011Z,86.96
2018-03-31T07:25:57.674Z,87.32
2018-03-31T07:28:31.287Z,87.81
2018-03-31T07:31:05.018Z,88.07
2018-03-31T07:33:39.139Z,87.93
2018-03-31T07:36:13.143Z,87.48
2018-03-31T07:38:47.010Z,87.37
2018-03-31T07:41:20.556Z,87.25
2018-03-31T07:43:54.765Z,87.40
2018-03-31T07:46:29.065Z,87.62
2018-03-31T07:49:03.302Z,87.62
2018-03-31T07:51:37.482Z,87.63
2018-03-31T07:54:11.374Z,88.03
2018-03-31T07:56:46.021Z,88.50
2018-03-31T07:59:19.907Z,88.39
2018-03-31T08:01:54.023Z,88.16
2018-03-31T08:04:28.282Z,88.06
2018-03-31T08:07:02.147Z,89.15
2018-03-31T08:09:36.347Z,89.67
2018-03-31T08:12:10.183Z,89.61
2018-03-31T08:14:43.980Z,90.48
2018-03-31T08:17:18.167Z,91.71
2018-03-31T08:19:52.191Z,90.21
2018-03-31T08:22:26.309Z,89.71
2018-03-31T08:25:00.189Z,89.04
2018-03-31T08:27:35.017Z,87.98
2018-03-31T08:30:08.597Z,88.05
2018-03-31T08:32:42.195Z,87.52
2018-03-31T08:35:16.053Z,87.54
2018-03-31T08:37:50.070Z,86.94
2018-03-31T08:40:24.506Z,86.32
2018-03-31T08:42:58.358Z,87.19
2018-03-31T08:45:31.617Z,87.34
2018-03-31T08:48:05.492Z,87.31
2018-03-31T08:50:40.119Z,86.70
2018-03-31T08:53:13.622Z,86.01
2018-03-31T08:55:47.914Z,85.90
2018-03-31T08:58:22.210Z,86.41
2018-03-31T09:00:56.203Z,85.58
2018-03-31T09:03:30.452Z,84.55
2018-03-31T09:06:04.218Z,84.32
2018-03-31T09:08:38.445Z,84.15
2018-03-31T09:11:12.425Z,83.82
2018-03-31T09:13:46.631Z,83.98
2018-03-31T09:16:21.242Z,84.42
2018-03-31T09:18:55.264Z,84.46
2018-03-31T09:21:29.474Z,84.42
2018-03-31T09:24:03.506Z,84.43
2018-03-31T09:26:37.756Z,85.17
2018-03-31T09:29:12.027Z,84.94
2018-03-31T09:31:46.228Z,83.12
2018-03-31T09:34:20.330Z,80.79
2018-03-31T09:36:54.537Z,79.92
2018-03-31T09:39:28.510Z,78.80
2018-03-31T09:42:02.318Z,78.86
2018-03-31T09:44:36.354Z,78.79
2018-03-31T09:47:10.321Z,78.08
2018-03-31T09:49:44.304Z,77.81
2018-03-31T09:52:18.451Z,77.43
2018-03-31T09:54:52.562Z,76.75
2018-03-31T09:57:26.398Z,76.78
2018-03-31T10:00:00.296Z,76.20
2018-03-31T10:02:34.748Z,75.99
2018-03-31T10:05:09.139Z,76.63
2018-03-31T10:07:43.269Z,76.90
2018-03-31T10:10:17.386Z,77.84
2018-03-31T10:12:51.799Z,79.24
2018-03-31T10:15:25.437Z,80.48
2018-03-31T10:17:59.298Z,80.46
2018-03-31T10:20:33.441Z,81.23
2018-03-31T10:23:07.306Z,81.25
2018-03-31T10:25:41.822Z,82.52
2018-03-31T10:28:15.769Z,82.45
2018-03-31T10:30:49.604Z,81.73
2018-03-31T10:33:24.763Z,81.08
2018-03-31T10:35:58.969Z,80.94
2018-03-31T10:38:33.850Z,80.99
2018-03-31T10:41:07.433Z,81.14
2018-03-31T10:43:41.289Z,81.25
2018-03-31T10:46:14.970Z,81.28
2018-03-31T10:48:48.794Z,80.72
2018-03-31T10:51:22.643Z,79.91
2018-03-31T10:53:56.902Z,80.23
2018-03-31T10:56:31.024Z,80.39
2018-03-31T10:59:04.705Z,80.69
2018-03-31T11:01:38.149Z,81.01
2018-03-31T11:04:12.344Z,80.68
2018-03-31T11:06:46.118Z,81.27
2018-03-31T11:09:19.698Z,80.45
2018-03-31T11:11:53.210Z,80.74
2018-03-31T11:14:27.274Z,81.29
2018-03-31T11:17:01.161Z,80.77
2018-03-31T11:19:35.282Z,80.67
2018-03-31T11:22:09.774Z,79.62
2018-03-31T11:24:43.683Z,79.00
2018-03-31T11:27:17.750Z,77.97
2018-03-31T11:29:51.781Z,79.08
2018-03-31T11:32:25.652Z,79.35
2018-03-31T11:34:59.738Z,79.32
2018-03-31T11:37:33.434Z,78.76
2018-03-31T11:40:07.650Z,78.86
2018-03-31T11:42:41.640Z,78.45
2018-03-31T11:45:15.880Z,78.99
2018-03-31T11:47:49.781Z,79.36
2018-03-31T11:50:23.695Z,79.52
2018-03-31T11:52:57.678Z,79.24
2018-03-31T11:55:31.439Z,79.29
2018-03-31T11:58:04.907Z,80.20
2018-03-31T12:00:38.817Z,79.83
2018-03-31T12:03:12.827Z,79.77
2018-03-31T12:05:47.054Z,79.78
2018-03-31T12:08:20.753Z,79.08
2018-03-31T12:10:54.206Z,78.76
2018-03-31T12:13:28.310Z,78.47
2018-03-31T12:16:02.327Z,79.37
2018-03-31T12:18:35.990Z,79.22
2018-03-31T12:21:09.828Z,79.74
2018-03-31T12:23:44.074Z,79.76
2018-03-31T12:26:18.118Z,80.23
2018-03-31T12:28:52.627Z,78.69
2018-03-31T12:31:26.819Z,79.16
2018-03-31T12:34:00.938Z,78.59
2018-03-31T12:36:34.966Z,78.72
2018-03-31T12:39:08.967Z,78.23
2018-03-31T12:41:43.084Z,77.62
2018-03-31T12:44:16.994Z,77.86
2018-03-31T12:46:50.847Z,78.10
2018-03-31T12:49:25.019Z,77.92
2018-03-31T12:51:58.466Z,78.52
2018-03-31T12:54:32.453Z,79.27
2018-03-31T12:57:06.818Z,79.24
2018-03-31T12:59:40.908Z,79.00
2018-03-31T13:02:14.890Z,79.15
2018-03-31T13:04:49.194Z,79.00
2018-03-31T13:07:23.171Z,79.50
2018-03-31T13:09:57.592Z,79.48
2018-03-31T13:12:31.898Z,78.70
2018-03-31T13:15:05.295Z,78.99
2018-03-31T13:17:39.342Z,78.85
2018-03-31T13:20:13.283Z,77.84
2018-03-31T13:22:48.317Z,77.87
2018-03-31T13:25:22.398Z,77.92
2018-03-31T13:27:56.938Z,78.32
2018-03-31T13:30:31.368Z,78.62
2018-03-31T13:33:05.180Z,79.00
2018-03-31T13:35:39.692Z,79.30
2018-03-31T13:38:13.803Z,79.44
2018-03-31T13:40:47.710Z,79.49
2018-03-31T13:43:21.945Z,79.34
2018-03-31T13:45:55.935Z,79.43
2018-03-31T13:48:29.660Z,78.72
2018-03-31T13:51:04.062Z,79.27
2018-03-31T13:53:37.957Z,79.55
2018-03-31T13:56:12.068Z,78.98
2018-03-31T13:58:46.658Z,79.28
2018-03-31T14:01:20.606Z,78.81
2018-03-31T14:03:54.302Z,79.10
2018-03-31T14:06:28.290Z,78.70
2018-03-31T14:09:02.274Z,78.05
2018-03-31T14:11:36.030Z,78.85
2018-03-31T14:14:09.917Z,76.73
2018-03-31T14:16:43.625Z,76.16
2018-03-31T14:19:17.674Z,75.50
2018-03-31T14:21:51.527Z,76.21
2018-03-31T14:24:25.370Z,77.26
2018-03-31T14:26:59.327Z,77.93
2018-03-31T14:29:33.447Z,78.63
2018-03-31T14:32:07.348Z,78.96
2018-03-31T14:34:41.235Z,79.21
2018-03-31T14:37:15.243Z,79.50
2018-03-31T14:39:49.598Z,79.49
2018-03-31T14:42:23.156Z,79.59
2018-03-31T14:44:57.566Z,80.14
2018-03-31T14:47:31.520Z,80.72
2018-03-31T14:50:05.129Z,81.15
2018-03-31T14:52:39.344Z,81.67
2018-03-31T14:55:13.615Z,81.30
2018-03-31T14:57:47.166Z,80.89
2018-03-31T15:00:21.277Z,81.00
2018-03-31T15:02:54.878Z,80.54
2018-03-31T15:05:29.095Z,80.77
2018-03-31T15:08:02.362Z,80.76
2018-03-31T15:10:35.683Z,80.77
2018-03-31T15:13:09.691Z,80.26
2018-03-31T15:15:43.893Z,80.01
2018-03-31T15:18:17.783Z,79.61
2018-03-31T15:20:52.134Z,79.61
2018-03-31T15:23:25.786Z,79.81
2018-03-31T15:25:59.730Z,80.40
2018-03-31T15:28:33.599Z,80.19
2018-03-31T15:31:07.289Z,79.66
2018-03-31T15:33:41.325Z,80.17
2018-03-31T15:36:16.341Z,80.64
2018-03-31T15:38:49.707Z,80.29
2018-03-31T15:41:23.706Z,80.65
2018-03-31T15:43:57.746Z,80.41
2018-03-31T15:46:31.622Z,80.82
2018-03-31T15:49:04.897Z,81.53
2018-03-31T15:51:39.412Z,81.65
2018-03-31T15:54:12.779Z,81.88
2018-03-31T15:56:46.408Z,81.25
2018-03-31T15:59:19.768Z,81.25
2018-03-31T16:01:54.085Z,81.51
2018-03-31T16:04:28.380Z,81.71
2018-03-31T16:07:02.659Z,81.26
2018-03-31T16:09:36.878Z,81.51
2018-03-31T16:12:11.250Z,80.64
2018-03-31T16:14:45.438Z,80.78
2018-03-31T16:17:19.304Z,80.71
2018-03-31T16:19:53.302Z,81.09
2018-03-31T16:22:27.483Z,81.44
2018-03-31T16:25:01.456Z,81.64
2018-03-31T16:27:35.450Z,82.35
2018-03-31T16:30:09.650Z,81.12
2018-03-31T16:32:43.714Z,80.78
2018-03-31T16:35:17.708Z,81.48
2018-03-31T16:37:51.840Z,80.45
2018-03-31T16:40:26.017Z,80.27
2018-03-31T16:42:59.598Z,80.46
2018-03-31T16:45:33.396Z,81.10
2018-03-31T16:48:07.371Z,80.08
2018-03-31T16:50:41.459Z,80.49
2018-03-31T16:53:15.453Z,81.16
2018-03-31T16:55:49.619Z,80.76
2018-03-31T16:58:23.807Z,80.29
2018-03-31T17:00:58.070Z,80.67
2018-03-31T17:03:32.062Z,80.86
2018-03-31T17:06:06.456Z,80.84
2018-03-31T17:08:39.970Z,81.29
2018-03-31T17:13:53.482Z,80.46
2018-03-31T17:16:27.271Z,80.23
2018-03-31T17:19:00.647Z,80.47
2018-03-31T17:21:34.694Z,82.49
2018-03-31T17:24:08.531Z,82.34
2018-03-31T17:26:42.986Z,80.95
2018-03-31T17:29:17.501Z,80.83
2018-03-31T17:31:51.515Z,80.70
2018-03-31T17:34:25.715Z,80.46
2018-03-31T17:36:59.727Z,80.50
2018-03-31T17:39:33.942Z,80.76
2018-03-31T17:42:07.775Z,80.73
2018-03-31T17:44:42.060Z,80.59
2018-03-31T17:47:15.652Z,79.99
2018-03-31T17:49:49.843Z,80.32
2018-03-31T17:52:23.683Z,80.31
2018-03-31T17:54:57.806Z,80.16
2018-03-31T17:57:32.074Z,80.13
2018-03-31T18:00:05.658Z,81.03
2018-03-31T18:02:39.647Z,81.35
2018-03-31T18:05:13.315Z,81.68
2018-03-31T18:07:47.882Z,81.32
2018-03-31T18:10:21.619Z,80.64
2018-03-31T18:12:55.703Z,80.77
2018-03-31T18:15:29.595Z,80.71
2018-03-31T18:18:03.693Z,80.51
2018-03-31T18:20:37.945Z,80.41
2018-03-31T18:23:11.686Z,80.71
2018-03-31T18:25:45.859Z,81.46
2018-03-31T18:28:19.749Z,82.12
2018-03-31T18:30:53.847Z,81.98
2018-03-31T18:33:27.674Z,82.55
2018-03-31T18:36:01.605Z,82.44
2018-03-31T18:38:35.166Z,81.98
2018-03-31T18:41:09.269Z,82.47
2018-03-31T18:43:43.735Z,83.05
2018-03-31T18:46:17.768Z,83.00
2018-03-31T18:48:51.963Z,83.21
2018-03-31T18:51:25.767Z,82.87
2018-03-31T18:53:59.989Z,82.98
2018-03-31T18:56:34.214Z,82.89
2018-03-31T18:59:08.637Z,83.00
2018-03-31T19:01:42.839Z,82.98
2018-03-31T19:04:17.021Z,83.14
2018-03-31T19:06:50.890Z,83.54
2018-03-31T19:09:24.770Z,83.45
2018-03-31T19:11:59.039Z,82.95
2018-03-31T19:14:32.787Z,82.89
2018-03-31T19:17:12.088Z,83.01
2018-03-31T19:19:45.943Z,83.01
2018-03-31T19:22:19.913Z,83.45
2018-03-31T19:24:59.473Z,83.58
2018-03-31T19:27:33.674Z,83.93
2018-03-31T19:30:07.809Z,83.67
2018-03-31T19:32:42.609Z,83.67
2018-03-31T19:35:16.770Z,83.42
2018-03-31T19:37:50.662Z,83.08
2018-03-31T19:40:24.659Z,83.11
2018-03-31T19:42:59.698Z,83.20
2018-03-31T19:45:33.189Z,83.08
2018-03-31T19:48:07.162Z,82.98
2018-03-31T19:50:40.763Z,82.91
2018-03-31T19:53:14.831Z,82.90
2018-03-31T19:55:49.095Z,82.93
2018-03-31T19:58:22.976Z,82.93
2018-03-31T20:00:57.009Z,82.71
2018-03-31T20:03:32.174Z,82.57
2018-03-31T20:06:05.966Z,81.83
2018-03-31T20:08:39.919Z,81.43
2018-03-31T20:11:13.917Z,81.53
2018-03-31T20:13:48.370Z,81.21
2018-03-31T20:16:22.063Z,81.46
2018-03-31T20:18:56.437Z,81.25
2018-03-31T20:21:30.484Z,81.52
2018-03-31T20:24:04.393Z,81.71
2018-03-31T20:26:38.224Z,81.86
2018-03-31T20:29:12.017Z,81.96
2018-03-31T20:31:46.470Z,81.97
2018-03-31T20:34:20.223Z,82.34
2018-03-31T20:36:53.870Z,82.18
2018-03-31T20:39:28.182Z,82.18
2018-03-31T20:42:02.195Z,82.48
2018-03-31T20:44:36.187Z,82.68
2018-03-31T20:47:10.375Z,82.89
2018-03-31T20:49:44.558Z,83.00
2018-03-31T20:52:18.155Z,83.09
2018-03-31T20:54:52.150Z,82.89
2018-03-31T20:57:26.076Z,82.54
2018-03-31T20:59:59.862Z,82.43
2018-03-31T21:02:33.495Z,81.94
2018-03-31T21:05:07.869Z,81.79
2018-03-31T21:07:42.316Z,81.85
2018-03-31T21:10:16.186Z,81.50
2018-03-31T21:12:50.140Z,81.26
2018-03-31T21:15:24.147Z,81.24
2018-03-31T21:17:58.158Z,81.07
2018-03-31T21:20:32.561Z,81.06
2018-03-31T21:23:06.239Z,81.39
2018-03-31T21:25:40.330Z,81.48
2018-03-31T21:28:14.194Z,81.64
2018-03-31T21:30:48.310Z,81.71
2018-03-31T21:33:22.037Z,81.82
2018-03-31T21:35:56.007Z,81.93
2018-03-31T21:38:30.031Z,81.93
2018-03-31T21:41:03.322Z,82.06
2018-03-31T21:43:37.635Z,82.06
2018-03-31T21:46:12.138Z,82.10
2018-03-31T21:48:46.525Z,81.94
2018-03-31T21:51:20.202Z,82.20
2018-03-31T21:53:54.073Z,81.98
2018-03-31T21:56:28.216Z,82.13
2018-03-31T21:59:01.535Z,82.27
2018-03-31T22:01:35.602Z,82.22
2018-03-31T22:04:09.351Z,82.83
2018-03-31T22:06:43.643Z,83.37
2018-03-31T22:09:17.652Z,83.23
2018-03-31T22:11:51.266Z,83.30
2018-03-31T22:14:30.707Z,83.83
2018-03-31T22:17:04.270Z,83.83
2018-03-31T22:19:38.558Z,83.86
2018-03-31T22:22:12.322Z,84.08
2018-03-31T22:24:46.394Z,84.25
2018-03-31T22:27:20.264Z,84.39
2018-03-31T22:29:54.237Z,84.08
2018-03-31T22:32:28.249Z,83.52
2018-03-31T22:35:02.111Z,83.03
2018-03-31T22:37:36.382Z,82.79
2018-03-31T22:40:09.770Z,82.80
2018-03-31T22:42:43.554Z,83.38
2018-03-31T22:45:17.348Z,83.68
2018-03-31T22:47:51.292Z,83.89
2018-03-31T22:50:25.063Z,83.71
2018-03-31T22:52:59.214Z,83.54
2018-03-31T22:55:33.601Z,83.40
2018-03-31T22:58:07.443Z,83.09
2018-03-31T23:00:40.741Z,83.07
2018-03-31T23:03:15.256Z,83.25
2018-03-31T23:05:48.837Z,83.15
2018-03-31T23:08:23.233Z,83.02
2018-03-31T23:10:57.293Z,82.87
2018-03-31T23:13:32.636Z,82.90
2018-03-31T23:16:06.501Z,82.86
2018-03-31T23:18:44.743Z,83.11
2018-03-31T23:21:18.434Z,83.43
2018-03-31T23:23:52.534Z,83.60
2018-03-31T23:26:26.738Z,83.58
2018-03-31T23:29:00.511Z,83.80
2018-03-31T23:31:34.706Z,84.18
2018-03-31T23:34:08.814Z,83.91
2018-03-31T23:36:42.634Z,83.51
2018-03-31T23:39:16.409Z,83.68
2018-03-31T23:41:50.670Z,83.65
2018-03-31T23:44:24.399Z,83.71
2018-03-31T23:46:58.445Z,83.54
2018-03-31T23:49:32.718Z,83.53
2018-03-31T23:52:06.446Z,83.79
2018-03-31T23:54:39.806Z,83.89
2018-03-31T23:57:13.421Z,84.11
2018-03-31T23:59:47.626Z,84.08
